Time;durP1;ratioP1;P1;durP2;ratioP2;P2;SDS_P1;SDS_P2;PMS_P1;PMS_P2;Temp;Humidity;BMP_temperature;BMP_pressure;BME280_temperature;BME280_humidity;BME280_pressure;Samples;Min_cycle;Max_cycle;Signal;HPM_P1;HPM_P2
2022/12/09 00:03:31;;;;;;;16.00;7.10;;;;;;;6.05;68.71;99442.91;10321821;28;20436;-74
2022/12/09 00:08:34;;;;;;;18.20;8.20;;;;;;;6.05;67.99;99434.88;10348599;28;20041;-74
2022/12/09 00:13:36;;;;;;;17.30;8.00;;;;;;;6.06;68.68;99431.25;10344967;28;20061;-72
2022/12/09 00:18:38;;;;;;;14.05;7.80;;;;;;;5.99;68.51;99427.56;10349792;28;20042;-74
2022/12/09 00:23:40;;;;;;;20.25;8.90;;;;;;;6.05;68.19;99426.06;10347181;28;20109;-73
2022/12/09 00:28:43;;;;;;;21.92;8.52;;;;;;;6.06;68.55;99417.91;10344106;28;20050;-75
2022/12/09 00:33:45;;;;;;;21.33;9.75;;;;;;;6.04;68.61;99411.91;10341973;28;20066;-74
2022/12/09 00:38:46;;;;;;;20.85;8.88;;;;;;;6.04;68.87;99419.91;10314225;28;20133;-70
2022/12/09 00:43:48;;;;;;;18.95;9.77;;;;;;;6.00;68.35;99423.06;10351218;28;20579;-73
2022/12/09 00:48:49;;;;;;;19.40;9.85;;;;;;;5.95;68.65;99423.56;10343823;28;20140;-73
2022/12/09 00:53:53;;;;;;;20.95;9.75;;;;;;;5.92;68.73;99413.19;10347582;28;20105;-72
2022/12/09 00:58:56;;;;;;;22.33;10.38;;;;;;;5.92;68.73;99416.72;10346786;28;20046;-73
2022/12/09 01:03:58;;;;;;;23.02;10.80;;;;;;;5.87;69.24;99424.38;10331676;28;20046;-73
2022/12/09 01:09:01;;;;;;;25.02;10.82;;;;;;;5.94;69.54;99424.53;10333699;28;20053;-73
2022/12/09 01:14:03;;;;;;;19.08;10.40;;;;;;;6.01;68.54;99414.06;10345317;28;20049;-72
2022/12/09 01:19:07;;;;;;;16.65;8.90;;;;;;;6.01;68.73;99417.56;10344677;28;20080;-70
2022/12/09 01:24:10;;;;;;;18.40;9.52;;;;;;;6.03;68.83;99420.06;10344837;28;20054;-73
2022/12/09 01:29:12;;;;;;;18.20;8.10;;;;;;;6.07;69.36;99413.38;10332044;28;20053;-71
2022/12/09 01:34:13;;;;;;;15.50;7.88;;;;;;;6.06;68.60;99419.72;10344176;28;20059;-71
2022/12/09 01:39:15;;;;;;;14.73;7.53;;;;;;;6.08;68.55;99413.22;10342849;28;20605;-72
2022/12/09 01:44:25;;;;;;;15.73;8.48;;;;;;;6.11;69.02;99406.72;10343656;28;20077;-69
2022/12/09 01:49:31;;;;;;;18.10;8.07;;;;;;;6.08;68.79;99399.88;10338048;28;20057;-72
2022/12/09 01:54:33;;;;;;;16.85;8.65;;;;;;;6.11;69.10;99404.84;10339890;28;20073;-72
2022/12/09 01:59:35;;;;;;;23.95;9.73;;;;;;;6.11;68.61;99396.84;10328604;28;20046;-73
2022/12/09 02:04:40;;;;;;;18.88;10.63;;;;;;;6.09;68.93;99409.53;10344094;28;20508;-72
2022/12/09 02:09:42;;;;;;;22.77;12.95;;;;;;;6.08;68.65;99399.03;10329856;28;20125;-72
2022/12/09 02:14:54;;;;;;;18.63;9.30;;;;;;;6.12;69.24;99397.69;10324700;28;20062;-71
2022/12/09 02:20:11;;;;;;;16.65;7.93;;;;;;;6.08;69.43;99401.69;10329797;28;20124;-73
2022/12/09 02:25:30;;;;;;;17.63;8.17;;;;;;;6.01;69.31;99398.06;10340147;28;20137;-71
2022/12/09 02:30:52;;;;;;;15.00;7.50;;;;;;;6.02;69.18;99389.03;10341175;28;20525;-72
2022/12/09 02:36:02;;;;;;;15.13;7.80;;;;;;;5.98;68.72;99385.06;10342600;28;20049;-73
2022/12/09 02:41:11;;;;;;;14.10;7.88;;;;;;;5.98;68.81;99385.06;10339677;28;20050;-72
2022/12/09 02:46:13;;;;;;;13.65;7.13;;;;;;;5.98;69.03;99380.53;10339162;28;20081;-71
2022/12/09 02:51:19;;;;;;;16.67;8.20;;;;;;;5.90;69.23;99372.53;10340912;28;20145;-72
2022/12/09 02:56:22;;;;;;;14.70;7.43;;;;;;;5.89;68.96;99369.03;10340841;28;20045;-72
2022/12/09 03:01:30;;;;;;;16.00;7.70;;;;;;;5.85;69.61;99358.88;10339218;28;20070;-72
2022/12/09 03:06:45;;;;;;;17.85;7.45;;;;;;;5.78;69.52;99349.91;10348429;28;20050;-72
2022/12/09 03:11:48;;;;;;;15.18;8.07;;;;;;;5.82;69.24;99354.72;10335264;28;20043;-72
2022/12/09 03:17:07;;;;;;;14.18;7.70;;;;;;;5.75;69.81;99343.91;10339982;28;20452;-72
2022/12/09 03:22:14;;;;;;;16.08;7.53;;;;;;;5.77;70.03;99335.75;10336377;28;20064;-71
2022/12/09 03:27:21;;;;;;;14.60;8.63;;;;;;;5.82;69.85;99335.22;10332716;28;20084;-72
2022/12/09 03:32:25;;;;;;;13.50;7.07;;;;;;;5.83;69.66;99337.72;10338971;28;20084;-72
2022/12/09 03:37:28;;;;;;;15.85;7.90;;;;;;;5.84;69.20;99331.38;10344358;28;20057;-72
2022/12/09 03:42:38;;;;;;;15.70;7.63;;;;;;;5.82;69.65;99329.88;10349682;28;20053;-72
2022/12/09 03:47:39;;;;;;;16.92;7.47;;;;;;;5.80;69.50;99324.72;10347896;28;20074;-72
2022/12/09 03:52:59;;;;;;;17.40;8.38;;;;;;;5.79;69.96;99323.06;10331229;28;20077;-72
2022/12/09 03:58:03;;;;;;;14.07;7.15;;;;;;;5.80;69.84;99323.88;10347705;28;20222;-71
2022/12/09 04:03:06;;;;;;;16.50;7.95;;;;;;;5.79;70.09;99317.72;10335679;28;20074;-73
2022/12/09 04:08:09;;;;;;;16.35;8.05;;;;;;;5.81;69.93;99317.56;10345709;28;20521;-73
2022/12/09 04:13:11;;;;;;;18.92;9.65;;;;;;;5.77;69.59;99317.06;10347318;28;20058;-72
2022/12/09 04:18:12;;;;;;;19.65;9.63;;;;;;;5.78;69.30;99321.38;10342999;28;20065;-71
2022/12/09 04:23:14;;;;;;;18.13;8.65;;;;;;;5.81;70.03;99312.25;10347858;28;20112;-71
2022/12/09 04:28:15;;;;;;;18.70;8.85;;;;;;;5.82;69.47;99320.03;10340519;28;20050;-73
2022/12/09 04:33:17;;;;;;;20.17;10.07;;;;;;;5.83;69.94;99312.91;10345229;28;20058;-73
2022/12/09 04:38:18;;;;;;;18.98;9.38;;;;;;;5.84;70.02;99317.22;10345320;28;20548;-72
2022/12/09 04:43:20;;;;;;;17.20;9.35;;;;;;;5.81;69.86;99315.72;10324132;28;20054;-72
2022/12/09 04:48:21;;;;;;;19.77;9.45;;;;;;;5.79;70.24;99314.25;10339115;28;20054;-73
2022/12/09 04:53:23;;;;;;;19.70;10.32;;;;;;;5.76;70.04;99313.56;10346134;28;20066;-71
2022/12/09 04:58:24;;;;;;;24.38;10.73;;;;;;;5.77;70.67;99311.75;10317603;28;20056;-71
2022/12/09 05:03:26;;;;;;;18.35;10.27;;;;;;;5.79;69.86;99311.56;10344565;28;20457;-72
2022/12/09 05:08:28;;;;;;;21.00;11.13;;;;;;;5.80;70.55;99311.38;10343054;28;20046;-72
2022/12/09 05:13:32;;;;;;;19.30;10.27;;;;;;;5.74;70.33;99312.88;10340692;28;20157;-71
2022/12/09 05:18:34;;;;;;;24.30;10.65;;;;;;;5.74;70.65;99314.72;10344444;28;20045;-72
2022/12/09 05:23:36;;;;;;;22.15;11.18;;;;;;;5.75;70.22;99303.91;10325445;28;20044;-71
2022/12/09 05:28:38;;;;;;;21.63;10.52;;;;;;;5.75;70.29;99309.25;10338572;28;20046;-73
2022/12/09 05:33:40;;;;;;;23.08;11.02;;;;;;;5.73;70.14;99299.75;10342899;28;20523;-73
2022/12/09 05:38:42;;;;;;;22.83;11.82;;;;;;;5.75;71.04;99293.25;10345307;28;20125;-73
2022/12/09 05:43:45;;;;;;;25.33;12.68;;;;;;;5.74;70.31;99288.06;10340414;28;20137;-73
2022/12/09 05:48:46;;;;;;;22.90;12.00;;;;;;;5.74;70.81;99291.56;10349399;28;20116;-72
2022/12/09 05:53:49;;;;;;;27.92;13.00;;;;;;;5.81;70.66;99281.06;10344538;28;20045;-72
2022/12/09 05:58:52;;;;;;;26.33;12.95;;;;;;;5.85;70.37;99271.72;10338849;28;20132;-71
2022/12/09 06:03:54;;;;;;;33.33;13.55;;;;;;;5.85;70.31;99276.22;10340890;28;20048;-71
2022/12/09 06:08:58;;;;;;;29.42;13.35;;;;;;;5.86;69.95;99275.19;10340761;28;20058;-72
2022/12/09 06:14:00;;;;;;;29.63;13.18;;;;;;;5.85;70.12;99270.88;10338191;28;20057;-71
2022/12/09 06:19:03;;;;;;;29.80;13.65;;;;;;;5.85;70.44;99268.22;10328950;28;20046;-73
2022/12/09 06:24:05;;;;;;;31.65;12.73;;;;;;;5.81;69.93;99266.91;10313289;28;20482;-72
2022/12/09 06:29:07;;;;;;;29.80;13.45;;;;;;;5.83;70.00;99271.06;10333850;28;20460;-72
2022/12/09 06:34:09;;;;;;;28.55;13.90;;;;;;;5.72;70.45;99272.25;10336114;28;20058;-72
2022/12/09 06:39:11;;;;;;;33.05;14.07;;;;;;;5.81;69.91;99265.06;10341660;28;20058;-73
2022/12/09 06:44:13;;;;;;;25.20;12.57;;;;;;;5.82;70.75;99268.56;10328504;28;20061;-73
2022/12/09 06:49:23;;;;;;;27.38;12.98;;;;;;;5.76;70.69;99276.22;10338951;28;20058;-71
2022/12/09 06:54:25;;;;;;;29.45;13.80;;;;;;;5.74;70.07;99280.91;10324353;28;20076;-71
2022/12/09 06:59:27;;;;;;;27.90;13.68;;;;;;;5.75;70.32;99277.25;10345078;28;20093;-72
2022/12/09 07:04:28;;;;;;;28.92;12.95;;;;;;;5.68;70.91;99278.91;10339298;28;20089;-75
2022/12/09 07:09:30;;;;;;;28.88;14.52;;;;;;;5.73;70.41;99279.25;10339096;28;20089;-74
2022/12/09 07:14:32;;;;;;;32.22;15.05;;;;;;;5.86;71.03;99278.69;10347614;28;20150;-61
2022/12/09 07:19:34;;;;;;;35.45;15.00;;;;;;;5.97;70.94;99287.38;10348666;28;20221;-62
2022/12/09 07:24:37;;;;;;;33.58;14.25;;;;;;;6.09;70.33;99289.47;10347225;28;20394;-61
2022/12/09 07:29:39;;;;;;;31.33;14.00;;;;;;;6.12;70.45;99290.97;10348809;28;20046;-62
2022/12/09 07:34:41;;;;;;;33.20;14.80;;;;;;;6.22;70.49;99288.09;10351259;28;20050;-61
2022/12/09 07:39:43;;;;;;;29.88;14.80;;;;;;;6.17;70.45;99287.78;10346856;28;20054;-61
2022/12/09 07:44:48;;;;;;;31.98;14.85;;;;;;;6.12;70.06;99281.16;10342166;28;20042;-61
2022/12/09 07:49:49;;;;;;;27.92;14.15;;;;;;;6.04;69.95;99285.66;10339315;28;20058;-61
2022/12/09 07:54:51;;;;;;;32.17;15.40;;;;;;;5.98;70.60;99283.69;10347208;28;20116;-61
2022/12/09 07:59:53;;;;;;;30.42;14.57;;;;;;;6.03;70.49;99290.19;10347657;28;20049;-62
2022/12/09 08:04:55;;;;;;;29.52;14.68;;;;;;;6.04;69.82;99278.53;10343062;28;20050;-61
2022/12/09 08:09:57;;;;;;;28.75;13.40;;;;;;;6.00;69.90;99279.00;10342790;28;20708;-61
2022/12/09 08:14:59;;;;;;;31.08;12.90;;;;;;;5.91;70.66;99268.34;10347757;28;20141;-61
2022/12/09 08:20:01;;;;;;;31.38;13.90;;;;;;;5.88;69.75;99276.69;10348438;28;20081;-60
2022/12/09 08:25:03;;;;;;;30.17;14.30;;;;;;;5.79;70.04;99279.56;10351772;28;20133;-62
2022/12/09 08:30:06;;;;;;;26.13;11.55;;;;;;;5.76;70.13;99280.72;10347547;28;20046;-61
2022/12/09 08:35:13;;;;;;;26.50;12.52;;;;;;;5.74;70.38;99280.06;10346062;28;20057;-62
2022/12/09 08:40:15;;;;;;;23.33;10.60;;;;;;;5.69;70.98;99271.78;10341569;28;20046;-61
2022/12/09 08:45:17;;;;;;;26.75;11.43;;;;;;;5.76;70.56;99278.06;10345387;28;20051;-61
2022/12/09 08:50:19;;;;;;;20.75;9.52;;;;;;;5.79;69.78;99275.06;10346917;28;20050;-61
2022/12/09 08:55:20;;;;;;;19.08;10.18;;;;;;;5.80;69.79;99274.06;10346134;28;20112;-61
2022/12/09 09:00:22;;;;;;;21.40;10.18;;;;;;;5.85;70.17;99277.03;10343815;28;20582;-60
2022/12/09 09:05:24;;;;;;;20.30;9.98;;;;;;;5.89;70.27;99270.38;10347218;28;20138;-61
2022/12/09 09:10:28;;;;;;;19.85;9.68;;;;;;;5.92;69.09;99266.50;10345883;28;20078;-62
2022/12/09 09:15:30;;;;;;;21.13;10.07;;;;;;;5.88;69.91;99259.84;10344751;28;20073;-62
2022/12/09 09:20:31;;;;;;;21.15;10.13;;;;;;;5.82;69.68;99265.88;10345550;28;20553;-61
2022/12/09 09:25:33;;;;;;;19.88;9.63;;;;;;;5.73;69.80;99260.59;10347358;28;20052;-61
2022/12/09 09:30:36;;;;;;;17.15;8.65;;;;;;;5.76;69.59;99251.41;10347529;28;20073;-61
2022/12/09 09:35:38;;;;;;;16.55;8.40;;;;;;;5.80;69.00;99257.22;10345392;28;20516;-62
2022/12/09 09:40:40;;;;;;;18.70;10.23;;;;;;;5.84;69.14;99267.38;10345763;28;20556;-61
2022/12/09 09:45:43;;;;;;;19.48;9.85;;;;;;;5.91;69.18;99257.69;10347356;28;20062;-61
2022/12/09 09:50:54;;;;;;;21.42;9.07;;;;;;;6.01;69.52;99248.69;10342141;28;20547;-61
2022/12/09 09:56:09;;;;;;;18.65;9.13;;;;;;;6.03;69.37;99247.50;10342794;28;20050;-61
2022/12/09 10:01:14;;;;;;;17.85;9.45;;;;;;;5.98;69.16;99243.69;10345616;28;20054;-61
2022/12/09 10:06:35;;;;;;;19.55;9.13;;;;;;;5.94;69.10;99245.81;10342542;28;20462;-61
2022/12/09 10:11:48;;;;;;;20.00;8.73;;;;;;;5.98;68.64;99238.34;10345799;28;20084;-61
2022/12/09 10:17:04;;;;;;;16.33;8.30;;;;;;;5.92;68.82;99230.03;10343422;28;20037;-61
2022/12/09 10:22:40;;;;;;;17.88;9.02;;;;;;;5.84;67.89;99232.69;10341922;28;20567;-61
2022/12/09 10:27:51;;;;;;;19.27;10.00;;;;;;;5.78;68.10;99232.56;10317070;28;20409;-62
2022/12/09 10:32:53;;;;;;;18.35;8.65;;;;;;;5.69;68.82;99227.28;10344794;28;20057;-60
2022/12/09 10:38:06;;;;;;;15.95;8.40;;;;;;;5.46;68.81;99229.84;10343312;28;20061;-60
2022/12/09 10:43:36;;;;;;;17.17;9.05;;;;;;;5.40;68.81;99229.69;10328293;28;20120;-60
2022/12/09 10:48:46;;;;;;;19.05;8.95;;;;;;;5.30;68.74;99228.03;10354029;28;20049;-65
2022/12/09 10:54:02;;;;;;;14.20;7.38;;;;;;;5.32;68.25;99227.88;10355866;28;20433;-62
2022/12/09 10:59:20;;;;;;;18.80;7.45;;;;;;;5.18;68.80;99220.59;10345787;28;20046;-62
2022/12/09 11:04:32;;;;;;;17.38;8.77;;;;;;;5.16;68.83;99220.75;10352970;28;20062;-62
2022/12/09 11:09:37;;;;;;;14.48;8.32;;;;;;;5.23;68.48;99219.06;10350886;28;20066;-61
2022/12/09 11:14:47;;;;;;;19.98;8.93;;;;;;;5.27;68.56;99207.09;10353205;28;20574;-63
2022/12/09 11:20:13;;;;;;;17.63;8.68;;;;;;;5.30;68.04;99203.25;10350224;28;20045;-62
2022/12/09 11:25:20;;;;;;;22.23;9.20;;;;;;;5.33;68.44;99201.06;10351853;28;20401;-62
2022/12/09 11:30:29;;;;;;;22.98;9.98;;;;;;;5.31;68.33;99196.91;10353614;28;20058;-62
2022/12/09 11:35:44;;;;;;;15.98;8.88;;;;;;;5.40;68.37;99200.38;10352479;28;20397;-62
2022/12/09 11:41:10;;;;;;;17.33;8.45;;;;;;;5.45;67.61;99204.19;10345878;28;20502;-62
2022/12/09 11:46:11;;;;;;;15.93;8.70;;;;;;;5.50;68.40;99195.69;10350965;28;20108;-63
2022/12/09 11:51:33;;;;;;;14.80;7.18;;;;;;;5.53;67.75;99192.69;10351369;28;20150;-62
2022/12/09 11:56:37;;;;;;;14.25;7.28;;;;;;;5.64;67.95;99184.28;10350591;28;20120;-62
2022/12/09 12:01:47;;;;;;;13.95;6.15;;;;;;;5.70;67.45;99188.94;10349354;28;20084;-61
2022/12/09 12:07:00;;;;;;;14.95;8.00;;;;;;;5.76;67.66;99180.22;10348497;28;20129;-62
2022/12/09 12:12:07;;;;;;;12.48;5.53;;;;;;;5.86;66.93;99176.53;10353506;28;20100;-63
2022/12/09 12:17:32;;;;;;;19.73;6.55;;;;;;;5.93;67.09;99167.66;10353472;28;20092;-62
2022/12/09 12:22:52;;;;;;;11.38;6.72;;;;;;;5.97;66.61;99167.34;10352134;28;20125;-62
2022/12/09 12:28:32;;;;;;;11.20;5.93;;;;;;;5.96;67.11;99161.16;10355030;28;20041;-62
2022/12/09 12:34:10;;;;;;;;;;;;;;;5.90;67.62;99162.66;10348559;28;20065;-63
2022/12/09 12:39:45;;;;;;;10.57;5.75;;;;;;;5.93;66.89;99164.16;10339689;28;20024;-62
2022/12/09 12:51:05;;;;;;;13.88;7.13;;;;;;;5.92;66.67;99150.00;10353306;28;20046;-62
2022/12/09 12:56:10;;;;;;;14.65;6.68;;;;;;;5.88;66.82;99150.50;10346307;28;20173;-63
2022/12/09 13:01:23;;;;;;;14.95;6.75;;;;;;;5.99;66.15;99155.50;10355802;28;20120;-62
2022/12/09 13:06:49;;;;;;;13.05;6.43;;;;;;;6.05;65.84;99148.63;10349062;28;20088;-63
2022/12/09 13:12:06;;;;;;;12.45;5.43;;;;;;;6.00;65.56;99142.97;10351377;28;20142;-63
2022/12/09 13:17:12;;;;;;;13.10;6.17;;;;;;;5.95;66.37;99139.00;10355743;28;20467;-62
2022/12/09 13:22:25;;;;;;;13.63;6.63;;;;;;;6.05;65.74;99144.13;10359593;28;20073;-63
2022/12/09 13:27:43;;;;;;;12.48;6.60;;;;;;;6.03;65.25;99138.13;10380787;28;20065;-63
2022/12/09 13:33:03;;;;;;;9.00;4.03;;;;;;;6.01;65.16;99137.47;10380259;28;20046;-63
2022/12/09 13:38:23;;;;;;;14.07;5.75;;;;;;;5.98;65.76;99137.00;10356478;28;20046;-63
2022/12/09 13:43:27;;;;;;;12.48;5.07;;;;;;;5.92;65.29;99139.34;10347569;28;20129;-62
2022/12/09 13:48:28;;;;;;;12.93;5.88;;;;;;;5.94;65.30;99131.16;10345166;28;20077;-63
2022/12/09 13:53:50;;;;;;;14.40;7.15;;;;;;;5.89;65.03;99139.69;10353596;28;20506;-61
2022/12/09 13:58:58;;;;;;;11.93;6.05;;;;;;;5.99;65.42;99130.66;10346936;28;20037;-62
2022/12/09 14:04:36;;;;;;;13.90;6.95;;;;;;;6.05;64.28;99127.28;10344963;28;20137;-62
2022/12/09 14:09:43;;;;;;;15.52;7.40;;;;;;;6.05;65.46;99129.97;10367584;28;20374;-62
2022/12/09 14:14:56;;;;;;;19.63;8.50;;;;;;;5.89;65.12;99138.84;10349542;28;20066;-62
2022/12/09 14:20:23;;;;;;;16.00;8.57;;;;;;;5.80;65.27;99150.56;10343128;28;20129;-63
2022/12/09 14:25:24;;;;;;;13.00;6.13;;;;;;;5.60;65.97;99153.66;10349108;28;20064;-63
2022/12/09 14:30:28;;;;;;;15.80;7.68;;;;;;;5.57;65.64;99157.50;10352678;28;20074;-62
2022/12/09 14:35:53;;;;;;;12.05;7.13;;;;;;;5.55;65.40;99164.84;10348041;28;20069;-63
2022/12/09 14:41:30;;;;;;;13.07;6.85;;;;;;;5.43;65.71;99166.25;10363771;28;20041;-62
2022/12/09 14:46:37;;;;;;;13.85;7.32;;;;;;;5.29;65.81;99169.59;10361368;28;20096;-64
2022/12/09 14:51:43;;;;;;;;;;;;;;;5.15;65.64;99171.13;10356223;28;20054;-62
2022/12/09 14:56:48;;;;;;;10.45;5.93;;;;;;;5.06;65.82;99172.16;10355649;28;19968;-62
2022/12/09 15:01:55;;;;;;;15.75;6.88;;;;;;;4.97;65.09;99176.66;10371498;28;20050;-62
2022/12/09 15:07:20;;;;;;;14.00;6.97;;;;;;;4.93;65.63;99191.31;10357569;28;20497;-63
2022/12/09 15:12:35;;;;;;;12.25;6.15;;;;;;;4.88;65.19;99183.84;10354166;28;20121;-62
2022/12/09 15:17:42;;;;;;;15.25;7.05;;;;;;;4.93;65.18;99186.00;10360751;28;20080;-62
2022/12/09 15:22:50;;;;;;;10.13;5.40;;;;;;;4.94;65.36;99185.00;10373823;28;20038;-63
2022/12/09 15:28:04;;;;;;;15.50;6.53;;;;;;;4.95;65.77;99189.31;10360127;28;20097;-63
2022/12/09 15:33:15;;;;;;;16.17;7.13;;;;;;;4.93;65.02;99192.13;10381022;28;20029;-62
2022/12/09 15:38:18;;;;;;;14.18;7.22;;;;;;;5.01;65.26;99190.47;10360708;28;20058;-62
2022/12/09 15:43:19;;;;;;;14.13;7.50;;;;;;;4.92;65.25;99201.13;10350440;28;20404;-62
2022/12/09 15:48:25;;;;;;;12.82;7.85;;;;;;;4.86;65.17;99196.50;10361399;28;20405;-61
2022/12/09 15:53:33;;;;;;;16.50;8.48;;;;;;;4.66;65.74;99198.66;10355568;28;20077;-61
2022/12/09 15:58:41;;;;;;;14.38;7.68;;;;;;;4.56;65.62;99205.97;10354321;28;20132;-60
2022/12/09 16:03:48;;;;;;;14.43;8.13;;;;;;;4.39;65.69;99210.44;10353298;28;20050;-69
2022/12/09 16:08:50;;;;;;;15.95;8.52;;;;;;;4.27;66.00;99211.78;10332143;28;20091;-69
2022/12/09 16:13:59;;;;;;;18.30;9.80;;;;;;;4.09;66.39;99212.72;10349712;28;20133;-70
2022/12/09 16:19:00;;;;;;;19.25;8.68;;;;;;;4.00;66.72;99210.19;10346528;28;20066;-72
2022/12/09 16:24:10;;;;;;;14.15;7.03;;;;;;;3.92;66.44;99218.97;10345978;28;20070;-70
2022/12/09 16:29:22;;;;;;;12.75;6.18;;;;;;;3.82;66.58;99219.13;10350494;28;20132;-72
2022/12/09 16:34:25;;;;;;;14.02;7.30;;;;;;;3.81;66.08;99219.28;10333924;28;20468;-70
2022/12/09 16:39:26;;;;;;;11.73;6.18;;;;;;;3.74;66.28;99219.91;10344977;28;20137;-69
2022/12/09 16:44:31;;;;;;;14.65;7.80;;;;;;;3.73;66.71;99226.25;10348573;28;20076;-69
2022/12/09 16:49:33;;;;;;;15.88;7.55;;;;;;;3.74;66.57;99221.75;10353263;28;20133;-71
2022/12/09 16:54:36;;;;;;;12.80;7.05;;;;;;;3.70;66.28;99228.38;10343696;28;20108;-70
2022/12/09 16:59:37;;;;;;;16.42;8.90;;;;;;;3.68;66.77;99235.69;10347392;28;20073;-70
2022/12/09 17:04:39;;;;;;;16.70;7.97;;;;;;;3.71;66.50;99235.34;10350500;28;20512;-71
2022/12/09 17:09:40;;;;;;;14.57;7.53;;;;;;;3.73;66.36;99228.91;10334021;28;20580;-71
2022/12/09 17:14:42;;;;;;;14.55;8.35;;;;;;;3.71;66.24;99230.03;10344267;28;20129;-70
2022/12/09 17:19:43;;;;;;;14.60;7.63;;;;;;;3.71;66.30;99230.88;10349167;28;20089;-70
2022/12/09 17:24:45;;;;;;;13.15;8.07;;;;;;;3.81;65.95;99229.91;10342280;28;20073;-70
2022/12/09 17:29:46;;;;;;;18.45;7.72;;;;;;;3.80;66.14;99234.41;10349534;28;20121;-71
2022/12/09 17:34:47;;;;;;;15.50;7.30;;;;;;;3.83;66.03;99236.75;10323124;28;20070;-68
2022/12/09 17:39:49;;;;;;;12.95;6.75;;;;;;;3.78;66.22;99242.53;10341406;28;20049;-67
2022/12/09 17:45:07;;;;;;;15.87;8.40;;;;;;;3.79;66.00;99243.34;10345793;28;20042;-70
2022/12/09 17:50:09;;;;;;;17.27;9.15;;;;;;;3.75;66.11;99248.16;10343695;28;20054;-70
2022/12/09 17:55:11;;;;;;;19.75;9.43;;;;;;;3.68;66.23;99255.09;10329030;28;20050;-70
2022/12/09 18:00:13;;;;;;;19.92;9.27;;;;;;;3.57;66.62;99250.06;10349388;28;20132;-69
2022/12/09 18:05:15;;;;;;;15.15;8.48;;;;;;;3.54;66.35;99259.19;10345834;28;20074;-70
2022/12/09 18:10:16;;;;;;;19.30;8.85;;;;;;;3.50;66.27;99267.63;10348107;28;20054;-69
2022/12/09 18:15:18;;;;;;;17.25;8.35;;;;;;;3.40;66.73;99280.16;10320992;28;20042;-70
2022/12/09 18:20:19;;;;;;;17.88;9.13;;;;;;;3.40;66.69;99273.06;10295881;28;20091;-71
2022/12/09 18:25:20;;;;;;;18.00;9.02;;;;;;;3.44;66.89;99269.09;10259521;28;20142;-73
2022/12/09 18:30:22;;;;;;;16.52;8.52;;;;;;;3.47;66.63;99268.75;10260557;28;20071;-69
2022/12/09 18:35:23;;;;;;;18.27;8.75;;;;;;;3.45;66.48;99268.09;10256625;28;20103;-71
2022/12/09 18:40:25;;;;;;;18.05;9.07;;;;;;;3.42;66.72;99279.03;10253847;28;20082;-70
2022/12/09 18:45:26;;;;;;;16.63;8.90;;;;;;;3.50;67.07;99287.06;10264607;28;20054;-71
2022/12/09 18:50:27;;;;;;;18.60;8.82;;;;;;;3.53;66.99;99288.56;10261377;28;20137;-71
2022/12/09 18:55:29;;;;;;;18.98;10.02;;;;;;;3.57;66.90;99281.94;10260093;28;20455;-70
2022/12/09 19:00:30;;;;;;;18.27;8.65;;;;;;;3.55;66.94;99283.91;10260651;28;20774;-71
2022/12/09 19:05:40;;;;;;;17.70;9.15;;;;;;;3.54;67.18;99279.63;10266213;28;20046;-71
2022/12/09 19:10:41;;;;;;;24.30;10.68;;;;;;;3.56;66.86;99289.09;10266826;28;20142;-70
2022/12/09 19:15:43;;;;;;;24.75;11.30;;;;;;;3.52;67.13;99292.22;10269167;28;20133;-72
2022/12/09 19:20:47;;;;;;;23.70;11.25;;;;;;;3.57;67.49;99288.09;10336334;28;20061;-71
2022/12/09 19:25:48;;;;;;;24.17;10.50;;;;;;;3.59;67.39;99287.94;10364977;28;20757;-70
2022/12/09 19:30:49;;;;;;;29.77;11.80;;;;;;;3.51;67.52;99298.50;10357556;28;20712;-71
2022/12/09 19:35:51;;;;;;;27.88;12.32;;;;;;;3.54;67.38;99298.22;10352207;28;20057;-72
2022/12/09 19:40:52;;;;;;;21.88;11.35;;;;;;;3.48;67.77;99293.53;10346075;28;20554;-72
2022/12/09 19:45:54;;;;;;;23.60;12.98;;;;;;;3.49;67.65;99297.84;10353033;28;20082;-70
2022/12/09 19:50:55;;;;;;;23.30;11.05;;;;;;;3.47;67.33;99298.00;10347081;28;20061;-72
2022/12/09 19:56:02;;;;;;;28.58;12.80;;;;;;;3.36;67.84;99306.22;10348605;28;20129;-74
2022/12/09 20:01:09;;;;;;;26.30;13.27;;;;;;;3.44;67.32;99302.81;10346806;28;20081;-72
2022/12/09 20:06:12;;;;;;;29.27;14.67;;;;;;;3.45;67.48;99299.13;10350513;28;20145;-71
2022/12/09 20:11:21;;;;;;;26.98;12.90;;;;;;;3.36;67.70;99296.44;10350476;28;20076;-70
2022/12/09 20:16:23;;;;;;;24.98;13.13;;;;;;;3.36;67.35;99303.56;10335429;28;20062;-71
2022/12/09 20:21:26;;;;;;;26.52;12.18;;;;;;;3.33;68.00;99304.69;10334124;28;20125;-71
2022/12/09 20:26:30;;;;;;;23.35;11.38;;;;;;;3.22;68.14;99302.31;10352700;28;20132;-72
2022/12/09 20:31:33;;;;;;;27.65;12.88;;;;;;;3.24;67.98;99308.31;10350599;28;20084;-72
2022/12/09 20:36:36;;;;;;;28.00;12.75;;;;;;;3.34;67.58;99308.22;10347129;28;20046;-72
2022/12/09 20:41:38;;;;;;;27.58;12.70;;;;;;;3.38;67.70;99312.22;10347657;28;20064;-70
2022/12/09 20:46:44;;;;;;;28.20;12.73;;;;;;;3.42;67.61;99312.75;10347565;28;20121;-74
2022/12/09 20:51:47;;;;;;;28.00;13.45;;;;;;;3.44;67.17;99308.94;10342271;28;20141;-70
2022/12/09 20:56:49;;;;;;;29.52;14.02;;;;;;;3.49;67.42;99321.75;10344263;28;21114;-70
2022/12/09 21:01:52;;;;;;;24.33;12.43;;;;;;;3.52;67.47;99322.28;10342874;28;20073;-70
2022/12/09 21:06:54;;;;;;;28.55;13.25;;;;;;;3.55;67.28;99318.47;10349301;28;20073;-69
2022/12/09 21:11:56;;;;;;;24.27;11.93;;;;;;;3.45;67.79;99323.88;10344528;28;20081;-69
2022/12/09 21:16:58;;;;;;;22.85;11.38;;;;;;;3.41;67.58;99319.03;10344188;28;20077;-69
2022/12/09 21:21:59;;;;;;;30.10;14.15;;;;;;;3.40;67.49;99322.66;10345709;28;20112;-70
2022/12/09 21:27:01;;;;;;;28.08;13.18;;;;;;;3.59;67.32;99327.78;10350141;28;20129;-69
2022/12/09 21:32:02;;;;;;;23.40;12.27;;;;;;;3.67;66.92;99322.50;10347860;28;20046;-70
2022/12/09 21:37:04;;;;;;;25.60;11.57;;;;;;;3.77;66.85;99322.41;10348468;28;20050;-70
2022/12/09 21:42:05;;;;;;;22.88;11.43;;;;;;;3.83;66.74;99323.59;10338620;28;20378;-69
2022/12/09 21:47:07;;;;;;;21.85;11.40;;;;;;;3.88;66.79;99334.59;10346155;28;20161;-69
2022/12/09 21:52:09;;;;;;;20.10;10.23;;;;;;;3.91;66.64;99329.81;10347101;28;20062;-68
2022/12/09 21:57:11;;;;;;;22.98;10.57;;;;;;;3.96;66.37;99332.81;10348753;28;20057;-69
2022/12/09 22:02:12;;;;;;;22.77;11.18;;;;;;;3.91;66.72;99339.59;10349064;28;20156;-68
2022/12/09 22:07:14;;;;;;;23.77;11.07;;;;;;;3.93;66.47;99337.59;10349599;28;20051;-71
2022/12/09 22:12:15;;;;;;;25.90;11.98;;;;;;;3.91;66.70;99347.56;10347025;28;20077;-69
2022/12/09 22:17:16;;;;;;;23.98;11.15;;;;;;;3.91;66.93;99352.88;10341632;28;20141;-70
2022/12/09 22:22:18;;;;;;;25.80;12.25;;;;;;;3.93;66.94;99345.59;10327987;28;20077;-70
2022/12/09 22:27:19;;;;;;;22.88;11.98;;;;;;;3.94;66.63;99355.25;10341346;28;20542;-69
2022/12/09 22:32:20;;;;;;;28.20;13.93;;;;;;;3.94;66.72;99358.72;10342769;28;20145;-70
2022/12/09 22:37:22;;;;;;;26.42;12.40;;;;;;;3.89;66.67;99361.03;10340244;28;20133;-69
2022/12/09 22:42:43;;;;;;;28.23;12.48;;;;;;;3.78;67.00;99361.31;10336912;28;20133;-69
2022/12/09 22:47:45;;;;;;;24.33;10.85;;;;;;;3.68;67.43;99365.88;10346147;28;20121;-69
2022/12/09 22:52:47;;;;;;;25.75;11.85;;;;;;;3.67;67.01;99362.38;10339474;28;20532;-69
2022/12/09 22:57:48;;;;;;;24.48;11.68;;;;;;;3.64;66.87;99369.84;10341961;28;20054;-69
2022/12/09 23:02:50;;;;;;;26.75;12.45;;;;;;;3.65;66.80;99376.81;10350108;28;20060;-70
2022/12/09 23:07:51;;;;;;;24.17;12.05;;;;;;;3.64;66.75;99370.69;10346469;28;20701;-69
2022/12/09 23:12:53;;;;;;;25.30;11.80;;;;;;;3.59;66.85;99380.94;10345860;28;20165;-70
2022/12/09 23:17:54;;;;;;;25.48;10.65;;;;;;;3.53;66.84;99373.56;10338265;28;20058;-69
2022/12/09 23:22:56;;;;;;;21.92;10.13;;;;;;;3.46;67.03;99367.25;10338167;28;20077;-69
2022/12/09 23:27:57;;;;;;;23.35;10.07;;;;;;;3.45;67.04;99369.03;10341495;28;20073;-68
2022/12/09 23:32:59;;;;;;;23.38;11.48;;;;;;;3.40;66.74;99379.31;10340606;28;20077;-69
2022/12/09 23:38:00;;;;;;;27.02;13.27;;;;;;;3.47;67.37;99376.84;10338171;28;20100;-69
2022/12/09 23:43:02;;;;;;;28.33;12.82;;;;;;;3.40;66.80;99376.66;10340403;28;20085;-69